Time;durP1;ratioP1;P1;durP2;ratioP2;P2;SDS_P1;SDS_P2;PMS_P1;PMS_P2;Temp;Humidity;BMP_temperature;BMP_pressure;BME280_temperature;BME280_humidity;BME280_pressure;Samples;Min_cycle;Max_cycle;Signal;HPM_P1;HPM_P2
2022/10/12 00:02:22;;;;;;;40.13;27.45;;;;;;;17.67;66.15;101800.56;5006195;28;20523;-80
2022/10/12 00:04:49;;;;;;;35.90;26.58;;;;;;;17.82;66.51;101822.38;5006102;28;20527;-80
2022/10/12 00:07:16;;;;;;;43.97;26.38;;;;;;;17.80;66.18;101812.75;5006699;28;20373;-81
2022/10/12 00:09:42;;;;;;;37.60;25.95;;;;;;;17.83;66.14;101826.75;5006841;28;20057;-81
2022/10/12 00:12:09;;;;;;;40.83;26.42;;;;;;;17.67;66.34;101805.06;5007017;28;20058;-82
2022/10/12 00:14:36;;;;;;;42.28;27.10;;;;;;;17.53;66.30;101790.34;5006463;28;20561;-81
2022/10/12 00:17:03;;;;;;;38.92;25.60;;;;;;;16.47;66.40;101617.53;5006752;28;20042;-81
2022/10/12 00:19:30;;;;;;;44.78;27.63;;;;;;;17.49;66.65;101783.59;5006524;28;20385;-82
2022/10/12 00:21:56;;;;;;;34.63;25.80;;;;;;;17.70;66.55;101816.38;5006232;28;20078;-80
2022/10/12 00:24:24;;;;;;;38.38;25.42;;;;;;;17.69;66.54;101822.75;5006564;28;20058;-80
2022/10/12 00:26:50;;;;;;;42.20;26.95;;;;;;;17.73;66.53;101834.84;5006762;28;20053;-80
2022/10/12 00:29:17;;;;;;;38.75;26.50;;;;;;;17.65;66.44;101820.50;5006982;28;20133;-80
2022/10/12 00:31:44;;;;;;;43.13;26.85;;;;;;;17.04;66.12;101725.47;5007262;28;20148;-81
2022/10/12 00:34:10;;;;;;;34.90;26.65;;;;;;;17.61;66.67;101825.34;5005988;28;20052;-82
2022/10/12 00:36:37;;;;;;;36.13;26.75;;;;;;;17.40;66.70;101790.72;5022223;28;20443;-81
2022/10/12 00:39:06;;;;;;;39.80;26.27;;;;;;;17.65;66.78;101821.34;5005928;28;20085;-82
2022/10/12 00:41:38;;;;;;;40.30;28.05;;;;;;;17.36;66.16;101772.41;5006095;28;20503;-81
2022/10/12 00:44:33;;;;;;;41.95;26.48;;;;;;;17.49;66.18;101799.72;5022518;28;20511;-79
2022/10/12 00:47:03;;;;;;;38.58;26.35;;;;;;;17.48;66.97;101787.28;5022293;28;20054;-81
2022/10/12 00:49:30;;;;;;;38.20;26.30;;;;;;;17.63;66.61;101820.66;5006275;28;20054;-80
2022/10/12 00:52:05;;;;;;;39.08;27.35;;;;;;;17.46;66.92;101786.59;5006097;28;20054;-80
2022/10/12 00:54:39;;;;;;;38.53;26.70;;;;;;;17.65;66.64;101821.34;5005860;28;20148;-81
2022/10/12 00:57:10;;;;;;;41.58;27.13;;;;;;;17.51;66.31;101798.56;5006222;28;20057;-81
2022/10/12 00:59:51;;;;;;;39.70;27.35;;;;;;;17.58;66.61;101806.00;5006483;28;20132;-83
2022/10/12 01:02:18;;;;;;;;;;;;;;;17.56;66.71;101816.91;5008390;28;20057;-82
2022/10/12 01:04:45;;;;;;;36.00;24.55;;;;;;;17.55;67.07;101812.53;5012215;28;19925;-80
2022/10/12 01:07:13;;;;;;;36.35;26.23;;;;;;;17.56;67.05;101810.69;5024339;28;20140;-81
2022/10/12 01:09:40;;;;;;;38.97;25.50;;;;;;;17.44;66.74;101797.47;5040912;28;20062;-81
2022/10/12 01:12:08;;;;;;;37.17;27.20;;;;;;;17.08;66.59;101737.56;5024538;28;20046;-81
2022/10/12 01:14:35;;;;;;;35.90;26.88;;;;;;;17.58;66.05;101806.84;5028074;28;20134;-81
2022/10/12 01:17:32;;;;;;;44.55;27.45;;;;;;;17.20;66.86;101755.13;5028017;28;20300;-80
2022/10/12 01:20:44;;;;;;;40.53;27.88;;;;;;;17.34;66.95;101780.59;5011554;28;20665;-82
2022/10/12 01:23:17;;;;;;;35.45;25.33;;;;;;;17.53;66.70;101806.47;5028486;28;20164;-80
2022/10/12 01:25:56;;;;;;;42.03;27.50;;;;;;;17.19;66.92;101748.09;5027603;28;20045;-82
2022/10/12 01:28:43;;;;;;;41.67;27.05;;;;;;;17.55;66.03;101796.44;5029301;28;20081;-82
2022/10/12 01:31:46;;;;;;;36.67;26.05;;;;;;;17.39;66.73;101777.47;5027320;28;20415;-81
2022/10/12 01:34:26;;;;;;;36.22;27.58;;;;;;;17.51;66.96;101808.47;5010128;28;20076;-79
2022/10/12 01:37:19;;;;;;;36.78;24.80;;;;;;;16.69;66.77;101680.59;5006173;28;20045;-82
2022/10/12 01:39:53;;;;;;;39.97;27.42;;;;;;;17.37;67.05;101800.94;5007533;28;20131;-81
2022/10/12 01:42:26;;;;;;;37.35;26.58;;;;;;;17.15;67.42;101776.19;5023984;28;20077;-79
2022/10/12 01:45:13;;;;;;;42.42;27.30;;;;;;;17.30;67.68;101800.69;5023700;28;20080;-82
2022/10/12 01:47:47;;;;;;;41.28;27.42;;;;;;;16.76;67.07;101717.41;5007191;28;20049;-80
2022/10/12 01:50:15;;;;;;;36.88;26.98;;;;;;;16.83;67.45;101734.59;5007134;28;20132;-79
2022/10/12 01:52:57;;;;;;;40.30;27.25;;;;;;;17.32;67.46;101809.44;5007183;28;20081;-81
2022/10/12 01:55:57;;;;;;;35.88;27.00;;;;;;;17.15;67.18;101786.94;5007164;28;20149;-80
2022/10/12 01:58:27;;;;;;;42.08;27.48;;;;;;;17.28;67.33;101808.03;5007332;28;20054;-81
2022/10/12 02:01:20;;;;;;;37.78;27.65;;;;;;;17.24;67.35;101803.97;5006987;28;20054;-82
2022/10/12 02:03:47;;;;;;;41.92;27.92;;;;;;;16.83;67.42;101737.28;5008589;28;20220;-81
2022/10/12 02:06:19;;;;;;;42.05;27.52;;;;;;;17.25;67.36;101803.81;5007372;28;20049;-81
2022/10/12 02:09:00;;;;;;;38.30;26.55;;;;;;;16.22;67.47;101652.06;5007050;28;20575;-81
2022/10/12 02:11:27;;;;;;;36.80;25.53;;;;;;;17.19;67.41;101800.91;5008452;28;20385;-81
2022/10/12 02:14:17;;;;;;;43.28;28.50;;;;;;;16.93;68.20;101765.91;5008528;28;20309;-80
2022/10/12 02:16:51;;;;;;;43.30;27.00;;;;;;;16.64;68.11;101734.69;5009068;28;20640;-80
2022/10/12 02:19:25;;;;;;;39.80;26.60;;;;;;;16.96;68.20;101782.53;5008485;28;20045;-81
2022/10/12 02:21:56;;;;;;;43.35;28.10;;;;;;;17.04;68.21;101805.94;5008127;28;20404;-80
2022/10/12 02:24:23;;;;;;;;;;;;;;;16.97;68.00;101807.53;5008213;28;20577;-81
2022/10/12 02:26:54;;;;;;;41.13;26.95;;;;;;;16.82;68.12;101786.56;5009941;28;19960;-81
2022/10/12 02:29:24;;;;;;;42.63;28.17;;;;;;;16.77;68.16;101767.38;5008339;28;20132;-81
2022/10/12 02:32:08;;;;;;;41.33;27.52;;;;;;;17.01;68.35;101795.50;5008217;28;20061;-80
2022/10/12 02:34:44;;;;;;;41.92;27.75;;;;;;;16.58;68.49;101717.34;5009908;28;20128;-81
2022/10/12 02:37:23;;;;;;;37.47;27.92;;;;;;;15.88;68.63;101603.59;5008016;28;20448;-80
2022/10/12 02:39:55;;;;;;;37.00;26.33;;;;;;;16.85;68.53;101764.81;5008952;28;20058;-80
2022/10/12 02:42:37;;;;;;;41.17;27.55;;;;;;;16.98;68.17;101790.44;5007644;28;20479;-80
2022/10/12 02:45:24;;;;;;;47.25;28.83;;;;;;;16.73;68.17;101759.75;5007822;28;20423;-81
2022/10/12 02:47:54;;;;;;;40.30;28.48;;;;;;;16.65;68.03;101752.44;5008895;28;20050;-80
2022/10/12 02:50:22;;;;;;;45.85;28.38;;;;;;;16.74;68.40;101783.72;5008165;28;20077;-81
2022/10/12 02:52:50;;;;;;;45.45;27.63;;;;;;;16.62;68.80;101763.47;5008156;28;20085;-80
2022/10/12 02:55:17;;;;;;;51.78;28.83;;;;;;;16.73;68.71;101790.09;5007763;28;20046;-80
2022/10/12 02:57:44;;;;;;;45.70;28.60;;;;;;;16.63;68.80;101765.16;5007413;28;20066;-81
2022/10/12 03:00:11;;;;;;;39.58;26.13;;;;;;;16.43;68.61;101735.78;5008209;28;20042;-79
2022/10/12 03:02:38;;;;;;;43.15;29.15;;;;;;;16.78;68.86;101793.22;5007488;28;20141;-81
2022/10/12 03:05:05;;;;;;;43.63;28.42;;;;;;;16.80;68.31;101791.22;5007885;28;20046;-81
2022/10/12 03:07:31;;;;;;;41.45;28.38;;;;;;;16.67;68.42;101771.91;5007410;28;20060;-80
2022/10/12 03:09:58;;;;;;;42.80;28.13;;;;;;;16.01;68.44;101671.88;5007433;28;20082;-81
2022/10/12 03:12:25;;;;;;;45.97;27.73;;;;;;;16.63;68.25;101757.13;5007522;28;20081;-81
2022/10/12 03:14:51;;;;;;;40.53;27.58;;;;;;;16.59;68.56;101753.03;5007875;28;20053;-81
2022/10/12 03:17:18;;;;;;;45.83;27.42;;;;;;;15.78;68.07;101617.00;5007330;28;20145;-81
2022/10/12 03:19:44;;;;;;;43.88;27.10;;;;;;;16.61;67.67;101748.38;5007212;28;20089;-79
2022/10/12 03:22:11;;;;;;;45.10;28.48;;;;;;;16.41;67.24;101697.53;5007925;28;20046;-80
2022/10/12 03:24:38;;;;;;;38.47;28.00;;;;;;;16.92;66.66;101753.47;5008036;28;20127;-79
2022/10/12 03:27:04;;;;;;;45.25;29.75;;;;;;;16.88;66.99;101761.81;5008552;28;20133;-79
2022/10/12 03:29:31;;;;;;;34.92;26.38;;;;;;;17.04;67.47;101800.56;5006660;28;20377;-80
2022/10/12 03:31:57;;;;;;;42.15;27.70;;;;;;;16.73;67.71;101757.91;5006942;28;20852;-80
2022/10/12 03:34:24;;;;;;;45.20;29.27;;;;;;;16.72;67.95;101758.91;5007524;28;20058;-79
2022/10/12 03:36:50;;;;;;;40.58;27.45;;;;;;;16.95;67.79;101799.63;5007299;28;20049;-79
2022/10/12 03:39:17;;;;;;;48.70;32.40;;;;;;;16.96;67.32;101789.72;5012393;28;20050;-81
2022/10/12 03:41:43;;;;;;;38.88;28.50;;;;;;;16.65;66.84;101736.34;5027640;28;20085;-81
2022/10/12 03:44:10;;;;;;;44.65;29.83;;;;;;;16.97;67.51;101805.69;5007759;28;20050;-81
2022/10/12 03:46:37;;;;;;;44.65;29.40;;;;;;;16.95;67.78;101796.09;5023649;28;20496;-79
2022/10/12 03:49:03;;;;;;;44.00;30.13;;;;;;;16.75;67.87;101766.66;5007633;28;20196;-80
2022/10/12 03:51:30;;;;;;;41.75;29.10;;;;;;;16.56;68.03;101743.47;5007568;28;20054;-80
2022/10/12 03:53:57;;;;;;;44.53;30.98;;;;;;;16.86;67.91;101793.31;5006153;28;20556;-80
2022/10/12 03:56:23;;;;;;;43.60;30.25;;;;;;;16.84;67.76;101789.09;5007766;28;20056;-81
2022/10/12 03:58:50;;;;;;;41.08;29.65;;;;;;;16.88;67.75;101791.31;5006325;28;20112;-82
2022/10/12 04:01:18;;;;;;;45.55;30.88;;;;;;;16.04;67.38;101657.34;5006654;28;20054;-80
2022/10/12 04:03:44;;;;;;;46.72;31.48;;;;;;;16.78;67.56;101787.84;5006792;28;20054;-79
2022/10/12 04:06:11;;;;;;;42.55;31.08;;;;;;;16.76;67.40;101787.13;5024168;28;20136;-80
2022/10/12 04:08:38;;;;;;;45.83;30.73;;;;;;;16.45;67.83;101741.78;5023141;28;20041;-81
2022/10/12 04:11:05;;;;;;;43.15;30.25;;;;;;;16.40;67.84;101744.06;5022848;28;20049;-79
2022/10/12 04:13:32;;;;;;;46.30;31.17;;;;;;;16.64;68.31;101785.63;5022978;28;20061;-81
2022/10/12 04:16:06;;;;;;;46.53;31.05;;;;;;;16.56;68.42;101774.78;5023426;28;20149;-80
2022/10/12 04:18:33;;;;;;;43.70;30.55;;;;;;;16.73;67.40;101787.41;5006911;28;20103;-81
2022/10/12 04:21:01;;;;;;;47.40;31.10;;;;;;;16.58;67.79;101772.81;5007854;28;20085;-81
2022/10/12 04:23:27;;;;;;;55.50;31.45;;;;;;;16.72;67.71;101793.75;5006393;28;20045;-81
2022/10/12 04:25:54;;;;;;;51.78;31.95;;;;;;;16.64;67.99;101773.03;5006359;28;20343;-83
2022/10/12 04:28:20;;;;;;;46.67;31.80;;;;;;;16.38;67.84;101735.38;5022696;28;20057;-81
2022/10/12 04:30:47;;;;;;;43.55;32.03;;;;;;;16.61;68.00;101769.84;5022900;28;20057;-81
2022/10/12 04:33:14;;;;;;;46.45;32.38;;;;;;;16.75;67.72;101796.16;5006658;28;20061;-81
2022/10/12 04:35:41;;;;;;;57.53;35.97;;;;;;;16.77;67.44;101796.88;5006506;28;20273;-78
2022/10/12 04:38:07;;;;;;;44.30;31.38;;;;;;;16.72;67.35;101787.56;5022492;28;20133;-80
2022/10/12 04:40:34;;;;;;;44.40;30.95;;;;;;;16.85;67.17;101791.63;5006719;28;20447;-82
2022/10/12 04:43:01;;;;;;;46.63;31.45;;;;;;;16.91;67.40;101803.59;5023851;28;20092;-80
2022/10/12 04:45:27;;;;;;;49.55;32.53;;;;;;;16.94;67.04;101799.75;5008193;28;20496;-80
2022/10/12 04:47:54;;;;;;;54.15;33.08;;;;;;;16.95;66.84;101801.47;5010376;28;20514;-81
2022/10/12 04:50:25;;;;;;;53.65;32.50;;;;;;;16.73;67.35;101771.31;5010519;28;20053;-79
2022/10/12 04:52:55;;;;;;;55.13;32.72;;;;;;;16.85;67.20;101788.09;5010637;28;20065;-82
2022/10/12 04:55:22;;;;;;;50.78;31.50;;;;;;;16.95;67.16;101807.66;5026765;28;20575;-82
2022/10/12 04:57:49;;;;;;;47.58;32.63;;;;;;;16.90;66.82;101798.38;5011600;28;20054;-81
2022/10/12 05:00:16;;;;;;;54.95;32.67;;;;;;;16.78;66.76;101777.13;5010063;28;20500;-81
2022/10/12 05:02:43;;;;;;;50.47;33.55;;;;;;;16.90;66.93;101804.59;5010646;28;20054;-83
2022/10/12 05:05:09;;;;;;;70.72;48.88;;;;;;;16.71;67.07;101767.94;5010426;28;20054;-80
2022/10/12 05:07:36;;;;;;;55.22;34.85;;;;;;;16.59;66.87;101750.38;5011080;28;20413;-81
2022/10/12 05:10:04;;;;;;;55.30;33.78;;;;;;;16.93;66.79;101808.81;5010961;28;20050;-81
2022/10/12 05:12:30;;;;;;;55.63;34.95;;;;;;;16.91;67.20;101805.44;5002193;28;20149;-79
2022/10/12 05:14:57;;;;;;;53.17;36.20;;;;;;;16.96;66.79;101814.72;4990983;28;20467;-79
2022/10/12 05:17:24;;;;;;;55.38;34.03;;;;;;;16.87;66.82;101795.00;4990144;28;20081;-81
2022/10/12 05:19:50;;;;;;;56.08;36.13;;;;;;;16.96;67.01;101821.91;4991028;28;20238;-81
2022/10/12 05:22:17;;;;;;;55.50;36.92;;;;;;;16.76;66.72;101789.78;4991459;28;20050;-79
2022/10/12 05:24:44;;;;;;;52.42;35.50;;;;;;;16.54;67.20;101747.28;4990804;28;20058;-83
2022/10/12 05:27:15;;;;;;;53.15;34.97;;;;;;;16.80;66.81;101791.22;4990370;28;20046;-82
2022/10/12 05:29:41;;;;;;;57.67;37.17;;;;;;;16.95;66.96;101822.94;5010993;28;20080;-80
2022/10/12 05:32:08;;;;;;;54.72;34.75;;;;;;;16.83;67.05;101808.84;5008988;28;20506;-81
2022/10/12 05:34:35;;;;;;;58.92;36.08;;;;;;;16.95;66.90;101825.59;5015373;28;20133;-79
2022/10/12 05:37:01;;;;;;;62.22;36.67;;;;;;;16.88;66.85;101817.31;5009288;28;20068;-81
2022/10/12 05:39:28;;;;;;;58.53;36.28;;;;;;;16.48;66.75;101753.22;5009505;28;20057;-78
2022/10/12 05:41:55;;;;;;;52.13;34.40;;;;;;;16.93;66.39;101828.44;4991443;28;20068;-80
2022/10/12 05:44:21;;;;;;;55.97;34.40;;;;;;;16.90;66.65;101819.84;4989713;28;20129;-81
2022/10/12 05:46:48;;;;;;;56.22;34.28;;;;;;;16.93;66.24;101824.91;4990206;28;20082;-81
2022/10/12 05:49:15;;;;;;;52.65;34.97;;;;;;;16.70;66.30;101798.44;5025209;28;20042;-80
2022/10/12 05:51:41;;;;;;;62.17;35.95;;;;;;;17.02;65.63;101838.28;5026451;28;20054;-84
2022/10/12 05:54:08;;;;;;;53.72;34.53;;;;;;;16.48;65.81;101748.72;5036810;28;20064;-84
2022/10/12 05:56:35;;;;;;;47.88;33.83;;;;;;;17.00;66.24;101845.63;5026406;28;20456;-78
2022/10/12 05:59:02;;;;;;;59.35;35.05;;;;;;;17.00;66.85;101845.63;5013265;28;20058;-81
2022/10/12 06:01:29;;;;;;;54.63;34.72;;;;;;;17.08;66.07;101848.38;4990330;28;20081;-80
2022/10/12 06:03:56;;;;;;;50.03;34.08;;;;;;;17.08;66.66;101836.81;5005992;28;20050;-80
2022/10/12 06:06:23;;;;;;;62.88;37.40;;;;;;;17.15;66.96;101847.81;5009366;28;20045;-80
2022/10/12 06:08:49;;;;;;;51.35;35.13;;;;;;;17.10;67.02;101848.25;5009094;28;20112;-79
2022/10/12 06:11:16;;;;;;;58.47;36.00;;;;;;;17.13;66.85;101850.63;5013236;28;20073;-80
2022/10/12 06:13:43;;;;;;;62.95;37.45;;;;;;;16.85;66.44;101802.34;5011017;28;20117;-79
2022/10/12 06:16:09;;;;;;;57.67;36.72;;;;;;;17.02;66.62;101826.69;5009120;28;20107;-80
2022/10/12 06:18:36;;;;;;;52.00;35.33;;;;;;;17.04;66.23;101822.03;5008659;28;20077;-79
2022/10/12 06:21:03;;;;;;;55.90;33.00;;;;;;;17.17;66.12;101829.72;5008067;28;20495;-80
2022/10/12 06:23:49;;;;;;;63.80;37.80;;;;;;;17.33;65.37;101855.91;5008223;28;20042;-80
2022/10/12 06:26:16;;;;;;;51.75;32.75;;;;;;;17.37;65.41;101855.44;5008055;28;20076;-79
2022/10/12 06:28:43;;;;;;;50.25;35.38;;;;;;;17.01;65.16;101801.69;5008165;28;20140;-82
2022/10/12 06:31:10;;;;;;;53.13;35.08;;;;;;;17.21;65.20;101825.72;5007437;28;20397;-79
2022/10/12 06:33:40;;;;;;;53.47;34.13;;;;;;;17.43;64.80;101859.38;5008054;28;20534;-80
2022/10/12 06:36:08;;;;;;;51.97;33.72;;;;;;;17.15;64.63;101803.03;4995834;28;20082;-81
2022/10/12 06:38:35;;;;;;;53.80;33.15;;;;;;;17.47;64.92;101858.06;5005612;28;20137;-81
2022/10/12 06:41:05;;;;;;;58.22;33.45;;;;;;;17.36;64.55;101828.78;5007453;28;20065;-81
2022/10/12 06:43:31;;;;;;;51.65;32.47;;;;;;;17.39;64.68;101844.56;5007945;28;20133;-82
2022/10/12 06:46:00;;;;;;;55.67;33.85;;;;;;;17.44;64.94;101863.75;5007912;28;20112;-79
2022/10/12 06:48:27;;;;;;;48.92;32.42;;;;;;;17.32;64.93;101835.44;4997341;28;20073;-80
2022/10/12 06:50:54;;;;;;;53.78;32.78;;;;;;;17.35;64.00;101819.84;5012586;28;20056;-82
2022/10/12 06:53:21;;;;;;;61.42;32.53;;;;;;;17.46;64.30;101845.66;5010398;28;20046;-80
2022/10/12 06:55:48;;;;;;;47.35;32.28;;;;;;;17.33;64.21;101826.38;5024504;28;20270;-80
2022/10/12 06:58:14;;;;;;;51.25;32.80;;;;;;;17.51;64.70;101867.53;5006721;28;20472;-80
2022/10/12 07:00:41;;;;;;;50.90;32.33;;;;;;;17.49;65.17;101872.19;4991550;28;20384;-80
2022/10/12 07:03:11;;;;;;;61.17;34.20;;;;;;;17.63;63.43;101877.03;4995055;28;20144;-80
2022/10/12 07:05:38;;;;;;;52.33;32.33;;;;;;;17.40;64.31;101859.66;5006834;28;20149;-81
2022/10/12 07:08:06;;;;;;;48.92;31.48;;;;;;;17.42;65.02;101880.00;5022667;28;20050;-80
2022/10/12 07:10:33;;;;;;;59.03;32.45;;;;;;;17.52;64.63;101885.31;5022252;28;20056;-80
2022/10/12 07:12:59;;;;;;;51.13;33.15;;;;;;;17.45;64.90;101870.78;5004232;28;20472;-80
2022/10/12 07:15:26;;;;;;;52.83;33.00;;;;;;;17.71;63.39;101870.91;4988352;28;20113;-80
2022/10/12 07:17:53;;;;;;;52.13;32.15;;;;;;;17.84;62.86;101894.72;4986719;28;20050;-80
2022/10/12 07:20:20;;;;;;;46.53;30.90;;;;;;;17.70;63.30;101891.56;4986320;28;20158;-81
2022/10/12 07:22:47;;;;;;;47.88;31.92;;;;;;;17.22;62.55;101804.13;4986692;28;20154;-80
2022/10/12 07:25:17;;;;;;;47.58;31.10;;;;;;;17.58;62.44;101863.25;5006148;28;20662;-79
2022/10/12 07:27:46;;;;;;;47.72;31.98;;;;;;;17.52;63.33;101896.91;5006221;28;20498;-81
2022/10/12 07:30:13;;;;;;;45.25;31.67;;;;;;;17.59;63.00;101897.13;5006169;28;20287;-81
2022/10/12 07:32:41;;;;;;;56.00;33.78;;;;;;;17.57;63.04;101874.94;5006629;28;20050;-84
2022/10/12 07:35:08;;;;;;;53.42;32.72;;;;;;;17.44;62.92;101855.69;5003115;28;20121;-80
2022/10/12 07:37:34;;;;;;;51.10;34.65;;;;;;;17.54;63.15;101894.06;4995586;28;20053;-81
2022/10/12 07:40:01;;;;;;;51.88;34.08;;;;;;;17.65;62.53;101899.22;5023339;28;20049;-80
2022/10/12 07:42:28;;;;;;;61.53;35.38;;;;;;;17.46;62.59;101865.28;5007575;28;20053;-79
2022/10/12 07:44:56;;;;;;;62.60;35.97;;;;;;;17.65;62.44;101882.28;5022353;28;20054;-83
2022/10/12 07:47:22;;;;;;;57.35;34.60;;;;;;;17.65;63.20;101909.97;5016450;28;20057;-83
2022/10/12 07:49:49;;;;;;;59.67;36.28;;;;;;;17.61;62.90;101903.19;4999679;28;20579;-80
2022/10/12 07:52:16;;;;;;;67.63;40.55;;;;;;;17.22;63.37;101830.97;5004819;28;20058;-80
2022/10/12 07:54:43;;;;;;;58.67;38.03;;;;;;;17.67;63.60;101899.94;5005197;28;20049;-82
2022/10/12 07:57:09;;;;;;;67.00;38.72;;;;;;;17.59;63.20;101870.28;5005140;28;20077;-81
2022/10/12 07:59:36;;;;;;;66.03;40.72;;;;;;;17.40;63.87;101860.50;5004223;28;20484;-80
2022/10/12 08:02:03;;;;;;;60.20;37.67;;;;;;;17.67;63.76;101891.00;4989742;28;20124;-83
2022/10/12 08:04:30;;;;;;;59.10;39.63;;;;;;;17.57;63.71;101869.59;5012321;28;20046;-79
2022/10/12 08:06:58;;;;;;;61.70;38.08;;;;;;;17.48;63.93;101852.56;5024721;28;20514;-80
2022/10/12 08:09:25;;;;;;;58.55;38.05;;;;;;;17.67;63.71;101867.69;5024639;28;20119;-83
2022/10/12 08:11:51;;;;;;;65.35;38.13;;;;;;;17.73;63.70;101866.25;5019582;28;20144;-80
2022/10/12 08:14:18;;;;;;;60.22;39.30;;;;;;;17.72;63.64;101843.06;4985785;28;20432;-81
2022/10/12 08:16:46;;;;;;;61.55;39.08;;;;;;;18.07;63.18;101890.59;5004449;28;20160;-80
2022/10/12 08:19:13;;;;;;;65.93;40.63;;;;;;;18.22;62.95;101895.44;4990692;28;20134;-80
2022/10/12 08:21:41;;;;;;;58.38;38.72;;;;;;;18.28;62.36;101892.97;5003663;28;20057;-81
2022/10/12 08:24:11;;;;;;;58.70;38.20;;;;;;;18.15;62.67;101896.03;4991595;28;20058;-80
2022/10/12 08:26:38;;;;;;;61.00;39.08;;;;;;;18.27;62.73;101895.81;5000683;28;20408;-80
2022/10/12 08:29:07;;;;;;;63.17;39.25;;;;;;;18.13;62.27;101870.31;5014025;28;20604;-81
2022/10/12 08:31:35;;;;;;;59.30;38.83;;;;;;;18.05;62.69;101868.41;5028922;28;20233;-79
2022/10/12 08:34:08;;;;;;;66.22;38.72;;;;;;;18.43;61.83;101895.94;5011953;28;20065;-81
2022/10/12 08:36:35;;;;;;;64.20;39.97;;;;;;;18.49;62.11;101906.06;5028077;28;20460;-81
2022/10/12 08:39:05;;;;;;;67.22;38.88;;;;;;;18.37;62.71;101907.31;5010105;28;20128;-81
2022/10/12 08:41:52;;;;;;;65.65;39.33;;;;;;;18.17;62.49;101849.38;5026316;28;20539;-82
2022/10/12 08:44:52;;;;;;;64.85;38.30;;;;;;;18.59;62.30;101908.66;5011248;28;20060;-79
2022/10/12 08:47:57;;;;;;;61.63;40.13;;;;;;;17.94;61.50;101782.69;5025568;28;20138;-81
2022/10/12 08:50:32;;;;;;;64.80;39.75;;;;;;;18.87;61.11;101901.31;4999172;28;20058;-78
2022/10/12 08:53:18;;;;;;;64.20;39.53;;;;;;;18.58;61.17;101842.44;5008608;28;20175;-81
2022/10/12 08:55:45;;;;;;;65.72;40.90;;;;;;;18.97;61.11;101899.34;5009132;28;20049;-84
2022/10/12 08:58:19;;;;;;;65.70;41.17;;;;;;;19.04;60.66;101871.78;5008448;28;20129;-83
2022/10/12 09:00:56;;;;;;;63.05;40.53;;;;;;;19.18;60.65;101901.63;5008474;28;20049;-83
2022/10/12 09:03:45;;;;;;;56.80;38.25;;;;;;;19.33;60.92;101893.78;5009106;28;20143;-82
2022/10/12 09:06:18;;;;;;;61.40;37.30;;;;;;;19.46;60.37;101892.47;5009864;28;20073;-81
2022/10/12 09:08:53;;;;;;;59.47;38.58;;;;;;;19.32;60.02;101840.09;5010713;28;20141;-80
2022/10/12 09:11:32;;;;;;;58.92;39.17;;;;;;;19.80;59.94;101895.94;5009910;28;20042;-82
2022/10/12 09:14:07;;;;;;;75.22;44.35;;;;;;;20.03;58.92;101890.78;5010611;28;20129;-82
2022/10/12 09:16:39;;;;;;;63.30;41.30;;;;;;;20.01;59.09;101876.63;5011543;28;20050;-82
2022/10/12 09:19:16;;;;;;;68.85;43.70;;;;;;;19.97;58.59;101842.06;5011001;28;20050;-82
2022/10/12 09:21:45;;;;;;;70.90;43.72;;;;;;;20.23;58.91;101891.28;5011015;28;20482;-82
2022/10/12 09:24:23;;;;;;;77.20;45.35;;;;;;;19.28;58.97;101715.75;5011113;28;20211;-84
2022/10/12 09:26:57;;;;;;;66.63;45.35;;;;;;;20.48;58.60;101899.34;5011869;28;20058;-80
2022/10/12 09:29:25;;;;;;;77.13;46.08;;;;;;;20.38;58.29;101872.56;5011337;28;20053;-82
2022/10/12 09:32:30;;;;;;;72.32;46.83;;;;;;;20.66;57.53;101885.72;5010947;28;20136;-82
2022/10/12 09:34:58;;;;;;;67.93;41.35;;;;;;;20.44;58.12;101830.59;5007299;28;20041;-82
2022/10/12 09:37:29;;;;;;;88.90;47.95;;;;;;;20.89;57.68;101877.72;5007346;28;20547;-81
2022/10/12 09:39:56;;;;;;;76.95;47.78;;;;;;;20.91;57.42;101867.59;5007954;28;20373;-82
2022/10/12 09:42:24;;;;;;;77.65;46.20;;;;;;;20.90;57.02;101847.03;5007979;28;20133;-82
2022/10/12 09:45:19;;;;;;;76.45;48.10;;;;;;;20.57;56.51;101773.44;5008382;28;20046;-81
2022/10/12 09:48:16;;;;;;;81.95;46.15;;;;;;;21.43;56.27;101868.91;5006358;28;20189;-80
2022/10/12 09:51:04;;;;;;;69.10;45.65;;;;;;;21.50;56.79;101873.41;4988631;28;20141;-81
2022/10/12 09:53:34;;;;;;;68.10;44.33;;;;;;;21.43;56.53;101850.00;5009425;28;20445;-81
2022/10/12 09:56:21;;;;;;;79.22;47.78;;;;;;;21.68;56.26;101872.31;5008773;28;20350;-83
2022/10/12 09:59:04;;;;;;;65.10;44.53;;;;;;;20.57;55.47;101670.94;4988379;28;20125;-82
2022/10/12 10:01:33;;;;;;;66.13;43.17;;;;;;;21.81;55.74;101840.13;4986048;28;20527;-81
2022/10/12 10:04:14;;;;;;;69.63;41.45;;;;;;;22.01;55.17;101872.06;5000348;28;20408;-82
2022/10/12 10:06:44;;;;;;;65.57;42.92;;;;;;;21.73;55.01;101795.09;5005840;28;20453;-83
2022/10/12 10:09:32;;;;;;;64.13;40.53;;;;;;;22.25;55.16;101880.00;5007551;28;20045;-81
2022/10/12 10:12:24;;;;;;;64.43;36.45;;;;;;;22.42;55.10;101878.00;5007516;28;20046;-81
2022/10/12 10:14:55;;;;;;;54.10;32.33;;;;;;;22.45;54.84;101860.56;5007476;28;20045;-80
2022/10/12 10:17:27;;;;;;;46.50;30.75;;;;;;;22.45;54.66;101844.31;5009691;28;20045;-80
2022/10/12 10:19:55;;;;;;;49.10;30.45;;;;;;;22.64;54.96;101870.00;5010598;28;20181;-81
2022/10/12 10:22:26;;;;;;;53.58;30.52;;;;;;;22.83;54.81;101878.41;5009980;28;20113;-79
2022/10/12 10:24:59;;;;;;;53.20;31.08;;;;;;;21.63;54.92;101670.19;5007696;28;20038;-81
2022/10/12 10:27:35;;;;;;;56.92;31.58;;;;;;;22.23;54.92;101754.94;5007519;28;20323;-83
2022/10/12 10:30:15;;;;;;;49.25;31.02;;;;;;;22.92;54.83;101848.56;5006983;28;20100;-81
2022/10/12 10:33:27;;;;;;;59.42;34.20;;;;;;;23.24;53.75;101877.13;5007630;28;20145;-80
2022/10/12 10:36:07;;;;;;;54.72;32.00;;;;;;;23.28;53.67;101873.00;5002818;28;20054;-81
2022/10/12 10:38:56;;;;;;;54.20;31.98;;;;;;;23.41;53.37;101877.75;5006839;28;20511;-81
2022/10/12 10:41:27;;;;;;;50.80;32.28;;;;;;;23.42;53.48;101852.31;5007350;28;20385;-82
2022/10/12 10:43:54;;;;;;;53.33;30.52;;;;;;;23.67;53.28;101878.03;5006621;28;20141;-81
2022/10/12 10:46:24;;;;;;;48.53;29.15;;;;;;;23.71;52.92;101878.47;5006324;28;20656;-81
2022/10/12 10:48:57;;;;;;;46.92;29.83;;;;;;;23.86;52.77;101871.19;5006465;28;20046;-82
2022/10/12 10:51:42;;;;;;;54.63;28.25;;;;;;;23.98;51.85;101863.38;5006312;28;20053;-82
2022/10/12 10:54:25;;;;;;;40.85;28.70;;;;;;;23.03;51.95;101701.84;5007274;28;20045;-81
2022/10/12 10:57:09;;;;;;;45.05;29.15;;;;;;;24.14;51.98;101864.13;5006556;28;20178;-81
2022/10/12 10:59:48;;;;;;;46.80;27.58;;;;;;;24.25;51.40;101858.16;5006163;28;20049;-82
2022/10/12 11:02:38;;;;;;;37.13;23.80;;;;;;;24.47;50.35;101859.81;5006047;28;20208;-83
2022/10/12 11:05:15;;;;;;;33.00;22.85;;;;;;;24.31;49.89;101835.66;5005487;28;20100;-81
2022/10/12 11:07:50;;;;;;;37.65;24.27;;;;;;;23.89;50.10;101751.47;5006828;28;20484;-82
2022/10/12 11:10:27;;;;;;;46.05;26.88;;;;;;;24.32;50.10;101837.31;5018108;28;20045;-81
2022/10/12 11:13:15;;;;;;;35.88;23.77;;;;;;;24.01;50.41;101819.56;5009436;28;20073;-83
2022/10/12 11:15:57;;;;;;;30.80;18.83;;;;;;;24.20;50.58;101849.75;5007152;28;20052;-81
2022/10/12 11:18:37;;;;;;;35.55;20.02;;;;;;;24.09;50.12;101843.84;5007283;28;20050;-82
2022/10/12 11:21:14;;;;;;;37.33;17.95;;;;;;;23.53;50.98;101781.34;5006958;28;20328;-82
2022/10/12 11:24:02;;;;;;;33.85;19.83;;;;;;;23.42;50.91;101784.56;5005988;28;20137;-81
2022/10/12 11:26:40;;;;;;;40.42;19.10;;;;;;;23.52;51.40;101833.03;5005200;28;20155;-82
2022/10/12 11:29:13;;;;;;;33.92;20.92;;;;;;;23.49;52.01;101839.69;5006835;28;20053;-84
2022/10/12 11:32:04;;;;;;;40.08;22.27;;;;;;;23.29;52.49;101835.91;5005300;28;20562;-82